Time;durP1;ratioP1;P1;durP2;ratioP2;P2;SDS_P1;SDS_P2;PMS_P1;PMS_P2;Temp;Humidity;BMP_temperature;BMP_pressure;BME280_temperature;BME280_humidity;BME280_pressure;Samples;Min_cycle;Max_cycle;Signal;HPM_P1;HPM_P2
2021/09/13 00:01:49;;;;;;;2.35;1.80;;;14.80;99.90;;;14.53;100.00;101226.41;4170265;28;20053;-75
2021/09/13 00:03:50;;;;;;;2.60;1.80;;;14.70;99.90;;;14.32;100.00;101196.91;4156301;28;20026;-75
2021/09/13 00:05:51;;;;;;;2.55;1.77;;;14.70;99.90;;;14.39;100.00;101188.09;4176187;28;20025;-75
2021/09/13 00:07:52;;;;;;;2.67;1.90;;;14.70;99.90;;;14.34;100.00;101184.31;4167663;28;20033;-75
2021/09/13 00:09:53;;;;;;;4.47;1.75;;;14.80;99.90;;;14.40;100.00;101192.41;4184007;28;20496;-75
2021/09/13 00:11:54;;;;;;;6.10;1.70;;;14.70;99.90;;;14.37;100.00;101195.41;4167960;28;20033;-75
2021/09/13 00:13:55;;;;;;;3.92;1.95;;;14.70;99.90;;;14.51;100.00;101209.00;4184459;28;20040;-75
2021/09/13 00:15:56;;;;;;;2.53;1.50;;;14.70;99.90;;;14.38;100.00;101185.63;4185391;28;20028;-75
2021/09/13 00:17:57;;;;;;;5.22;2.03;;;14.70;99.90;;;14.47;100.00;101178.47;4184986;28;20064;-75
2021/09/13 00:19:58;;;;;;;3.25;1.88;;;14.70;99.90;;;14.44;100.00;101194.75;4184276;28;20112;-75
2021/09/13 00:21:59;;;;;;;6.90;2.17;;;14.80;99.90;;;14.65;100.00;101195.84;4184073;28;20103;-75
2021/09/13 00:24:00;;;;;;;4.03;2.20;;;14.80;99.90;;;14.52;100.00;101186.75;4167446;28;20029;-75
2021/09/13 00:26:01;;;;;;;3.05;2.20;;;14.80;99.90;;;14.66;100.00;101208.13;4167328;28;20064;-75
2021/09/13 00:28:02;;;;;;;4.40;1.88;;;14.80;99.90;;;14.35;100.00;101176.19;4185205;28;20040;-75
2021/09/13 00:30:06;;;;;;;4.60;2.20;;;14.80;99.90;;;14.23;100.00;101161.59;4167527;28;20032;-75
2021/09/13 00:32:07;;;;;;;3.58;2.22;;;14.80;99.90;;;14.25;100.00;101172.03;4183563;28;20498;-75
2021/09/13 00:34:08;;;;;;;2.25;1.95;;;14.80;99.90;;;14.33;100.00;101178.19;4182390;28;20033;-75
2021/09/13 00:36:09;;;;;;;2.13;1.80;;;14.80;99.90;;;14.36;100.00;101161.94;4167506;28;20033;-75
2021/09/13 00:38:10;;;;;;;2.72;1.85;;;14.70;99.90;;;14.48;100.00;101185.44;4175569;28;20057;-75
2021/09/13 00:40:12;;;;;;;2.97;2.08;;;14.70;99.90;;;14.49;100.00;101187.91;4150924;28;20064;-75
2021/09/13 00:42:13;;;;;;;6.45;2.20;;;14.70;99.90;;;14.55;100.00;101171.31;4167463;28;20029;-75
2021/09/13 00:44:14;;;;;;;4.90;2.85;;;14.80;99.90;;;14.57;100.00;101149.91;4171440;28;20059;-75
2021/09/13 00:46:15;;;;;;;3.42;1.92;;;14.90;99.90;;;14.62;100.00;101182.91;4159774;28;20042;-75
2021/09/13 00:48:16;;;;;;;3.05;2.20;;;14.80;99.90;;;14.63;100.00;101189.06;4161419;28;20037;-75
2021/09/13 00:50:17;;;;;;;2.72;2.05;;;14.80;99.90;;;14.49;100.00;101187.09;4150910;28;20064;-75
2021/09/13 00:52:19;;;;;;;2.88;2.35;;;14.80;99.90;;;14.55;100.00;101187.22;4167364;28;20029;-75
2021/09/13 00:54:20;;;;;;;4.22;2.60;;;14.80;99.90;;;14.50;100.00;101172.81;4151016;28;20485;-75
2021/09/13 00:56:22;;;;;;;3.40;2.08;;;14.80;99.90;;;14.24;100.00;101157.94;4167292;28;20034;-75
2021/09/13 00:58:28;;;;;;;3.00;2.58;;;14.80;99.90;;;14.24;100.00;101141.19;4164187;28;20033;-75
2021/09/13 01:00:29;;;;;;;5.88;2.42;;;14.70;99.90;;;14.50;100.00;101175.47;4183435;28;20087;-75
2021/09/13 01:02:30;;;;;;;5.03;2.67;;;14.70;99.90;;;14.37;100.00;101147.63;4177000;28;20021;-75
2021/09/13 01:04:31;;;;;;;4.80;2.22;;;14.70;99.90;;;14.43;100.00;101166.53;4168631;28;20028;-75
2021/09/13 01:06:32;;;;;;;2.58;2.38;;;14.70;99.90;;;14.27;100.00;101146.16;4164814;28;20093;-75
2021/09/13 01:08:33;;;;;;;3.58;2.28;;;14.70;99.90;;;14.14;100.00;101133.41;4171523;28;20088;-75
2021/09/13 01:10:34;;;;;;;3.97;2.13;;;14.60;99.90;;;14.21;100.00;101158.28;4167159;28;20026;-75
2021/09/13 01:12:36;;;;;;;4.97;2.60;;;14.60;99.90;;;14.25;100.00;101185.28;4183625;28;20033;-75
2021/09/13 01:14:40;;;;;;;3.85;2.40;;;14.60;99.90;;;14.03;100.00;101146.22;4183719;28;20139;-75
2021/09/13 01:16:41;;;;;;;2.92;2.50;;;14.60;99.90;;;14.27;100.00;101200.06;4183631;28;20108;-75
2021/09/13 01:18:42;;;;;;;3.97;2.25;;;14.50;99.90;;;14.11;100.00;101173.56;4183516;28;20088;-75
2021/09/13 01:20:44;;;;;;;4.80;2.78;;;14.50;99.90;;;14.31;100.00;101153.59;4183695;28;20029;-75
2021/09/13 01:22:53;;;;;;;4.60;2.30;;;14.60;99.90;;;14.43;100.00;101148.78;4153704;28;20397;-75
2021/09/13 01:24:54;;;;;;;3.38;2.38;;;14.60;99.90;;;14.35;100.00;101149.66;4171336;28;20052;-75
2021/09/13 01:27:08;;;;;;;5.95;3.28;;;14.60;99.90;;;14.35;100.00;101164.75;4177077;28;20501;-75
2021/09/13 01:29:09;;;;;;;5.18;2.65;;;14.60;99.90;;;14.18;100.00;101169.25;4167068;28;20029;-75
2021/09/13 01:31:10;;;;;;;3.83;2.40;;;14.60;99.90;;;14.13;100.00;101162.75;4166873;28;20451;-75
2021/09/13 01:33:11;;;;;;;4.47;2.58;;;14.50;99.90;;;14.11;100.00;101147.03;4155881;28;20026;-75
2021/09/13 01:35:12;;;;;;;4.43;3.20;;;14.50;99.90;;;14.20;100.00;101153.13;4159305;28;20053;-75
2021/09/13 01:37:13;;;;;;;4.05;2.67;;;14.50;99.90;;;14.16;100.00;101173.03;4183368;28;20185;-75
2021/09/13 01:39:14;;;;;;;3.05;2.65;;;14.50;99.90;;;14.18;100.00;101174.53;4183302;28;20372;-75
2021/09/13 01:41:15;;;;;;;3.00;2.45;;;14.50;99.90;;;14.04;100.00;101151.34;4177632;28;20034;-75
2021/09/13 01:43:16;;;;;;;5.20;2.85;;;14.50;99.90;;;14.05;100.00;101154.81;4150468;28;20594;-75
2021/09/13 01:45:17;;;;;;;2.50;2.15;;;14.40;99.90;;;14.10;100.00;101165.75;4166813;28;20049;-75
2021/09/13 01:47:18;;;;;;;4.15;2.80;;;14.40;99.90;;;14.18;100.00;101153.31;4165781;28;20037;-75
2021/09/13 01:49:19;;;;;;;4.07;2.58;;;14.40;99.90;;;14.17;100.00;101150.81;4173622;28;20452;-75
2021/09/13 01:51:20;;;;;;;3.80;2.92;;;14.40;99.90;;;14.14;100.00;101148.50;4183090;28;20530;-75
2021/09/13 01:53:21;;;;;;;2.83;2.38;;;14.50;99.90;;;14.04;100.00;101153.16;4173692;28;20032;-75
2021/09/13 01:55:23;;;;;;;6.22;2.80;;;14.40;99.90;;;14.07;100.00;101137.72;4175156;28;20030;-75
2021/09/13 01:57:23;;;;;;;4.60;2.95;;;14.40;99.90;;;13.92;100.00;101135.97;4175001;28;20556;-75
2021/09/13 01:59:24;;;;;;;3.30;2.88;;;14.40;99.90;;;14.03;100.00;101152.34;4164903;28;20025;-75
2021/09/13 02:01:26;;;;;;;3.38;2.70;;;14.30;99.90;;;14.29;100.00;101168.03;4176150;28;20056;-75
2021/09/13 02:03:27;;;;;;;5.07;2.53;;;14.40;99.90;;;14.22;100.00;101136.03;4173242;28;20017;-75
2021/09/13 02:05:29;;;;;;;5.05;2.97;;;14.40;99.90;;;14.09;100.00;101122.50;4171684;28;20080;-75
2021/09/13 02:07:29;;;;;;;5.53;3.00;;;14.40;99.90;;;13.98;100.00;101117.53;4174734;28;20110;-75
2021/09/13 02:09:30;;;;;;;4.95;2.97;;;14.40;99.90;;;13.99;100.00;101127.16;4162207;28;20033;-75
2021/09/13 02:11:31;;;;;;;3.97;2.95;;;14.40;99.90;;;14.05;100.00;101138.91;4171067;28;20048;-75
2021/09/13 02:13:33;;;;;;;3.10;2.70;;;14.40;99.90;;;13.85;100.00;101125.19;4189855;28;20127;-75
2021/09/13 02:15:34;;;;;;;3.80;2.78;;;14.40;99.90;;;13.91;100.00;101129.81;4168918;28;20064;-75
2021/09/13 02:17:35;;;;;;;4.10;2.95;;;14.30;99.90;;;14.00;100.00;101133.28;4164839;28;20030;-75
2021/09/13 02:19:36;;;;;;;3.80;2.67;;;14.30;99.90;;;13.90;100.00;101120.19;4154356;28;20098;-75
2021/09/13 02:21:37;;;;;;;5.28;3.33;;;14.30;99.90;;;14.05;100.00;101115.84;4169292;28;20034;-75
2021/09/13 02:23:38;;;;;;;3.45;3.08;;;14.30;99.90;;;14.04;100.00;101103.59;4178147;28;20021;-75
2021/09/13 02:25:39;;;;;;;4.25;2.88;;;14.40;99.90;;;14.44;100.00;101149.63;4157640;28;20112;-75
2021/09/13 02:27:40;;;;;;;3.42;3.13;;;14.40;99.90;;;14.15;100.00;101115.69;4169273;28;20029;-75
2021/09/13 02:29:42;;;;;;;5.88;3.58;;;14.40;99.90;;;14.25;100.00;101118.94;4153046;28;20068;-75
2021/09/13 02:31:42;;;;;;;4.30;3.00;;;14.40;99.90;;;14.22;100.00;101122.78;4177229;28;20025;-75
2021/09/13 02:33:43;;;;;;;4.28;3.20;;;14.50;99.90;;;14.06;100.00;101100.78;4202279;28;20135;-75
2021/09/13 02:35:45;;;;;;;3.78;3.13;;;14.50;99.90;;;14.10;100.00;101102.06;4172735;28;20057;-75
2021/09/13 02:37:46;;;;;;;4.65;2.80;;;14.50;99.90;;;14.13;100.00;101107.88;4169276;28;20025;-75
2021/09/13 02:39:47;;;;;;;3.65;3.17;;;14.40;99.90;;;14.02;100.00;101091.50;4169370;28;20084;-76
2021/09/13 02:41:48;;;;;;;5.03;3.15;;;14.40;99.90;;;14.13;100.00;101107.88;4169427;28;20083;-75
2021/09/13 02:43:49;;;;;;;4.68;2.83;;;14.40;99.90;;;14.11;100.00;101099.25;4166085;28;20100;-75
2021/09/13 02:45:50;;;;;;;4.43;3.33;;;14.40;99.90;;;13.98;100.00;101093.66;4182082;28;20057;-75
2021/09/13 02:47:51;;;;;;;4.78;3.20;;;14.40;99.90;;;13.83;100.00;101103.28;4177147;28;20598;-75
2021/09/13 02:49:52;;;;;;;3.47;2.88;;;14.30;99.90;;;13.73;100.00;101084.94;4158972;28;20042;-75
2021/09/13 02:51:53;;;;;;;4.70;2.88;;;14.30;99.90;;;13.83;100.00;101112.09;4166015;28;20099;-75
2021/09/13 02:53:54;;;;;;;4.05;2.72;;;14.30;99.90;;;13.66;100.00;101093.72;4186790;28;20112;-75
2021/09/13 02:55:55;;;;;;;5.93;3.50;;;14.20;99.90;;;13.69;100.00;101093.38;4186929;28;20029;-75
2021/09/13 02:57:56;;;;;;;4.47;3.10;;;14.20;99.90;;;13.86;100.00;101117.06;4185405;28;20033;-75
2021/09/13 02:59:57;;;;;;;5.30;3.50;;;14.20;99.90;;;13.77;100.00;101101.31;4185271;28;20021;-75
2021/09/13 03:01:58;;;;;;;3.70;3.25;;;14.10;99.90;;;13.72;100.00;101098.34;4185562;28;20025;-75
2021/09/13 03:03:59;;;;;;;3.90;2.90;;;14.20;99.90;;;13.80;100.00;101096.50;4185192;28;20112;-76
2021/09/13 03:05:59;;;;;;;4.60;3.25;;;14.20;99.90;;;13.85;100.00;101110.09;4185317;28;20032;-75
2021/09/13 03:08:00;;;;;;;3.15;2.58;;;14.20;99.90;;;13.65;100.00;101084.13;4186361;28;20028;-75
2021/09/13 03:10:02;;;;;;;5.88;3.33;;;14.10;99.90;;;13.74;100.00;101091.03;4186237;28;20041;-75
2021/09/13 03:12:04;;;;;;;3.00;2.67;;;14.10;99.90;;;13.72;100.00;101099.19;4168717;28;20034;-76
2021/09/13 03:14:05;;;;;;;4.82;2.95;;;14.10;99.90;;;13.61;100.00;101075.66;4185154;28;20134;-75
2021/09/13 03:16:06;;;;;;;4.65;2.90;;;14.10;99.90;;;13.78;100.00;101073.81;4185001;28;20025;-75
2021/09/13 03:18:07;;;;;;;4.13;3.10;;;14.20;99.90;;;13.94;100.00;101129.50;4184770;28;20560;-75
2021/09/13 03:20:09;;;;;;;3.65;2.75;;;14.10;99.90;;;13.73;100.00;101100.00;4186328;28;20028;-75
2021/09/13 03:22:10;;;;;;;3.80;3.05;;;14.10;99.90;;;13.85;100.00;101094.19;4175760;28;20025;-75
2021/09/13 03:24:11;;;;;;;4.07;2.80;;;14.10;99.90;;;13.75;100.00;101090.88;4180483;28;20025;-75
2021/09/13 03:26:12;;;;;;;5.53;3.42;;;14.20;99.90;;;13.76;100.00;101099.69;4168461;28;20031;-75
2021/09/13 03:28:13;;;;;;;3.83;2.90;;;14.10;99.90;;;13.69;100.00;101119.88;4158072;28;20025;-75
2021/09/13 03:30:14;;;;;;;3.65;2.85;;;14.10;99.90;;;13.59;100.00;101104.16;4161302;28;20025;-75
2021/09/13 03:32:15;;;;;;;5.70;3.42;;;14.10;99.90;;;13.45;100.00;101070.38;4152088;28;20022;-75
2021/09/13 03:34:16;;;;;;;4.90;3.55;;;14.00;99.90;;;13.72;100.00;101111.59;4168346;28;20032;-74
2021/09/13 03:36:17;;;;;;;4.35;3.00;;;14.00;99.90;;;13.44;100.00;101089.09;4168432;28;20057;-75
2021/09/13 03:38:18;;;;;;;3.40;3.10;;;14.00;99.90;;;13.55;100.00;101078.16;4169617;28;20030;-75
2021/09/13 03:40:19;;;;;;;6.57;3.22;;;14.00;99.90;;;13.53;100.00;101065.06;4163588;28;20022;-75
2021/09/13 03:42:20;;;;;;;4.93;3.53;;;14.00;99.90;;;13.76;100.00;101110.28;4169480;28;20036;-75
2021/09/13 03:44:21;;;;;;;4.32;2.88;;;14.00;99.90;;;13.67;100.00;101100.69;4180384;28;20018;-75
2021/09/13 03:46:22;;;;;;;6.00;4.00;;;14.00;99.90;;;13.64;100.00;101069.19;4159176;28;20056;-75
2021/09/13 03:48:23;;;;;;;5.03;3.10;;;14.10;99.90;;;13.81;100.00;101107.94;4184477;28;20029;-75
2021/09/13 03:50:24;;;;;;;4.68;3.65;;;14.10;99.90;;;13.78;100.00;101087.91;4184836;28;20495;-75
2021/09/13 03:52:25;;;;;;;4.00;3.28;;;14.10;99.90;;;13.80;100.00;101064.69;4182143;28;20108;-75
2021/09/13 03:54:26;;;;;;;5.03;3.33;;;14.20;99.90;;;13.79;100.00;101062.22;4168382;28;20084;-75
2021/09/13 03:56:28;;;;;;;3.88;3.10;;;14.20;99.90;;;13.92;100.00;101083.72;4162367;28;20123;-75
2021/09/13 03:58:29;;;;;;;6.18;3.50;;;14.30;99.90;;;13.78;100.00;101061.38;4170483;28;20134;-75
2021/09/13 04:00:31;;;;;;;6.40;3.65;;;14.20;99.90;;;13.96;100.00;101065.66;4167874;28;20072;-75
2021/09/13 04:02:32;;;;;;;4.80;3.90;;;14.30;99.90;;;13.98;100.00;101063.69;4168865;28;20021;-75
2021/09/13 04:04:33;;;;;;;5.85;3.10;;;14.30;99.90;;;13.89;100.00;101070.78;4178625;28;20063;-75
2021/09/13 04:12:46;;;;;;;4.95;3.30;;;14.40;99.90;;;13.87;100.00;101035.66;4169167;28;20104;-75
2021/09/13 04:14:47;;;;;;;3.45;2.83;;;14.40;99.90;;;14.16;100.00;101081.00;4168976;28;20065;-75
2021/09/13 04:16:49;;;;;;;4.68;3.63;;;14.40;99.90;;;13.99;100.00;101052.03;4167819;28;20087;-75
2021/09/13 04:18:49;;;;;;;3.95;3.10;;;14.50;99.90;;;13.97;100.00;101069.97;4167478;28;20101;-75
2021/09/13 04:20:50;;;;;;;4.65;2.83;;;14.40;99.90;;;13.84;100.00;101059.88;4167558;28;20125;-75
2021/09/13 04:22:51;;;;;;;6.50;3.55;;;14.40;99.90;;;13.89;100.00;101060.19;4165734;28;20025;-75
2021/09/13 04:24:52;;;;;;;5.70;3.60;;;14.40;99.90;;;13.85;100.00;101064.19;4173134;28;20057;-75
2021/09/13 04:26:53;;;;;;;3.90;3.25;;;14.40;99.90;;;13.90;100.00;101080.41;4167719;28;20477;-75
2021/09/13 04:28:54;;;;;;;3.40;2.90;;;14.30;99.90;;;13.68;100.00;101049.28;4151071;28;20049;-75
2021/09/13 04:30:56;;;;;;;4.68;3.30;;;14.30;99.90;;;13.69;100.00;101046.50;4182061;28;20029;-75
2021/09/13 04:32:57;;;;;;;6.15;3.47;;;14.30;99.90;;;14.09;100.00;101101.28;4185203;28;20079;-75
2021/09/13 04:34:57;;;;;;;5.85;3.33;;;14.30;99.90;;;14.06;100.00;101079.56;4183212;28;20653;-75
2021/09/13 04:36:58;;;;;;;5.15;3.85;;;14.40;99.90;;;13.76;100.00;101046.66;4183763;28;20021;-75
2021/09/13 04:38:59;;;;;;;3.60;2.97;;;14.40;99.90;;;14.00;100.00;101085.53;4183852;28;20373;-75
2021/09/13 04:41:00;;;;;;;4.45;3.35;;;14.30;99.90;;;13.87;100.00;101064.84;4180008;28;20048;-75
2021/09/13 04:43:01;;;;;;;5.68;3.10;;;14.40;99.90;;;13.92;100.00;101069.66;4175625;28;20031;-75
2021/09/13 04:45:03;;;;;;;3.83;3.45;;;14.40;99.90;;;13.99;100.00;101074.09;4156769;28;20522;-75
2021/09/13 04:47:04;;;;;;;4.20;2.80;;;14.40;99.90;;;13.91;100.00;101079.44;4167060;28;20501;-75
2021/09/13 04:49:05;;;;;;;4.78;3.30;;;14.40;99.90;;;13.76;100.00;101042.19;4154461;28;20021;-75
2021/09/13 04:51:06;;;;;;;4.28;3.53;;;14.30;99.90;;;13.96;100.00;101077.09;4168613;28;20029;-75
2021/09/13 04:53:07;;;;;;;7.82;4.32;;;14.30;99.90;;;14.02;100.00;101075.56;4167258;28;20516;-75
2021/09/13 04:55:09;;;;;;;4.90;3.40;;;14.30;99.90;;;13.90;100.00;101063.66;4180393;28;20029;-75
2021/09/13 04:57:10;;;;;;;6.53;3.88;;;14.30;99.90;;;13.94;100.00;101070.31;4163672;28;20026;-75
2021/09/13 04:59:11;;;;;;;6.93;3.50;;;14.30;99.90;;;14.06;100.00;101059.16;4150706;28;20216;-75
2021/09/13 05:01:12;;;;;;;6.05;3.20;;;14.40;99.90;;;14.04;100.00;101060.31;4177191;28;20053;-75
2021/09/13 05:03:13;;;;;;;4.63;3.78;;;14.40;99.90;;;13.93;100.00;101055.38;4180086;28;20087;-75
2021/09/13 05:05:14;;;;;;;7.60;4.30;;;14.40;99.90;;;13.84;100.00;101039.50;4167395;28;20116;-75
2021/09/13 05:07:15;;;;;;;5.10;3.95;;;14.30;99.90;;;13.78;100.00;101045.47;4173398;28;20025;-75
2021/09/13 05:09:16;;;;;;;4.28;3.05;;;14.30;99.90;;;13.75;100.00;101045.81;4167270;28;20539;-75
2021/09/13 05:11:17;;;;;;;4.80;3.30;;;14.30;99.90;;;13.68;100.00;101041.34;4179898;28;20029;-75
2021/09/13 05:13:18;;;;;;;6.75;3.40;;;14.30;99.90;;;13.64;100.00;101037.38;4183408;28;20040;-75
2021/09/13 05:15:19;;;;;;;4.82;3.30;;;14.30;99.90;;;13.76;100.00;101054.59;4183575;28;20056;-75
2021/09/13 05:17:20;;;;;;;4.90;4.03;;;14.30;99.90;;;13.91;100.00;101049.44;4166665;28;20025;-75
2021/09/13 05:19:21;;;;;;;3.65;3.22;;;14.30;99.90;;;13.75;100.00;101040.50;4179236;28;20029;-75
2021/09/13 05:21:22;;;;;;;4.10;3.38;;;14.30;99.90;;;13.82;100.00;101048.63;4166159;28;20025;-75
2021/09/13 05:23:23;;;;;;;7.93;4.50;;;14.30;99.90;;;13.96;100.00;101079.75;4183405;28;20067;-75
2021/09/13 05:25:24;;;;;;;7.95;3.80;;;14.30;99.90;;;13.93;100.00;101066.81;4168120;28;20033;-75
2021/09/13 05:27:25;;;;;;;5.65;3.40;;;14.30;99.90;;;13.93;100.00;101069.47;4162679;28;20040;-75
2021/09/13 05:29:26;;;;;;;3.97;3.58;;;14.30;99.90;;;13.80;100.00;101050.59;4163674;28;20195;-75
2021/09/13 05:31:26;;;;;;;6.20;3.88;;;14.30;99.90;;;13.57;100.00;101010.72;4173353;28;20170;-75
2021/09/13 05:33:27;;;;;;;4.95;3.67;;;14.30;99.90;;;13.79;100.00;101052.44;4183296;28;20032;-75
2021/09/13 05:35:28;;;;;;;8.43;3.95;;;14.20;99.90;;;13.88;100.00;101047.94;4183278;28;20086;-75
2021/09/13 05:37:29;;;;;;;5.53;4.15;;;14.20;99.90;;;14.03;100.00;101063.97;4166492;28;20140;-75
2021/09/13 05:39:30;;;;;;;4.28;3.45;;;14.30;99.90;;;14.13;100.00;101038.91;4183300;28;20115;-75
2021/09/13 05:41:31;;;;;;;6.43;3.58;;;14.30;99.90;;;13.92;100.00;101024.56;4175351;28;20366;-75
2021/09/13 05:43:33;;;;;;;4.32;3.42;;;14.40;99.90;;;13.76;100.00;101020.13;4161588;28;20044;-75
2021/09/13 05:45:36;;;;;;;8.75;4.18;;;14.30;99.90;;;13.96;100.00;101039.97;4166808;28;20037;-75
2021/09/13 05:47:37;;;;;;;4.97;4.30;;;14.30;99.90;;;13.80;100.00;101010.81;4169574;28;20519;-75
2021/09/13 05:49:38;;;;;;;6.03;3.72;;;14.30;99.90;;;13.90;100.00;101014.13;4161354;28;20034;-75
2021/09/13 05:51:51;;;;;;;5.10;4.32;;;14.40;99.90;;;14.03;100.00;101034.81;4181077;28;20032;-75
2021/09/13 05:53:52;;;;;;;5.75;4.22;;;14.40;99.90;;;13.99;100.00;101010.44;4186520;28;20135;-75
2021/09/13 05:55:53;;;;;;;6.25;4.10;;;14.40;99.90;;;13.95;100.00;101019.72;4169849;28;20025;-75
2021/09/13 05:57:54;;;;;;;6.38;4.25;;;14.40;99.90;;;13.80;100.00;101019.59;4180241;28;20037;-76
2021/09/13 05:59:55;;;;;;;4.25;3.60;;;14.40;99.90;;;13.82;100.00;101036.19;4186428;28;20044;-76
2021/09/13 06:01:56;;;;;;;5.78;3.78;;;14.40;99.90;;;13.86;100.00;101021.59;4186117;28;20063;-75
2021/09/13 06:03:57;;;;;;;4.30;3.90;;;14.40;99.90;;;14.14;100.00;101045.88;4187385;28;20056;-75
2021/09/13 06:05:58;;;;;;;7.82;3.92;;;14.40;99.90;;;14.05;100.00;101024.84;4185981;28;20025;-75
2021/09/13 06:07:59;;;;;;;5.82;3.80;;;14.50;99.90;;;14.05;100.00;101009.75;4169433;28;20109;-75
2021/09/13 06:10:00;;;;;;;5.72;3.90;;;14.50;99.90;;;14.17;100.00;101023.47;4186038;28;20033;-75
2021/09/13 06:12:01;;;;;;;4.35;3.40;;;14.60;99.90;;;14.07;100.00;101015.69;4169579;28;20025;-75
2021/09/13 06:14:02;;;;;;;7.47;5.32;;;14.50;99.90;;;14.08;100.00;100993.50;4186012;28;20047;-75
2021/09/13 06:16:08;;;;;;;6.80;4.18;;;14.60;99.90;;;14.11;100.00;100997.63;4186006;28;20063;-75
2021/09/13 06:18:11;;;;;;;10.85;7.93;;;14.60;99.90;;;14.33;100.00;101026.09;4153915;28;20026;-75
2021/09/13 06:20:13;;;;;;;10.00;7.22;;;14.70;99.90;;;14.28;100.00;101007.16;4175923;28;20435;-75
2021/09/13 06:22:14;;;;;;;12.57;7.10;;;14.70;99.90;;;14.40;100.00;101009.28;4162589;28;20033;-75
2021/09/13 06:24:15;;;;;;;10.57;7.72;;;14.70;99.90;;;14.42;100.00;101011.78;4174149;28;20159;-75
2021/09/13 06:26:16;;;;;;;10.88;7.70;;;14.80;99.90;;;14.25;100.00;100979.16;4168955;28;20420;-75
2021/09/13 06:28:17;;;;;;;13.93;8.48;;;14.90;99.90;;;14.31;100.00;100977.63;4158946;28;20040;-75
2021/09/13 06:30:18;;;;;;;8.60;7.15;;;14.90;99.90;;;14.45;100.00;100992.03;4178481;28;20029;-75
2021/09/13 06:32:19;;;;;;;10.77;6.85;;;14.90;99.90;;;14.64;100.00;101015.44;4175299;28;20060;-75
2021/09/13 06:34:20;;;;;;;8.18;5.68;;;15.00;99.90;;;14.51;100.00;100996.63;4168224;28;20519;-75
2021/09/13 06:36:21;;;;;;;7.10;5.53;;;15.00;99.90;;;14.69;100.00;101018.41;4161237;28;20079;-75
2021/09/13 06:38:22;;;;;;;7.18;5.28;;;15.10;99.90;;;14.66;100.00;101022.25;4178019;28;20029;-74
2021/09/13 06:40:23;;;;;;;6.07;4.00;;;15.10;99.90;;;14.42;100.00;100995.84;4175517;28;20025;-75
2021/09/13 06:42:26;;;;;;;7.75;4.72;;;15.10;99.90;;;14.76;100.00;101025.50;4182552;28;20116;-75
2021/09/13 06:44:29;;;;;;;7.35;4.60;;;15.20;99.90;;;14.60;100.00;100990.28;4174195;28;20053;-76
2021/09/13 06:46:41;;;;;;;7.53;4.85;;;15.20;99.90;;;14.91;100.00;101038.84;4185167;28;20600;-75
2021/09/13 06:48:44;;;;;;;7.32;4.95;;;15.30;99.90;;;14.63;100.00;100995.22;4201822;28;20116;-75
2021/09/13 06:50:45;;;;;;;9.38;5.53;;;15.30;99.90;;;14.73;100.00;101003.78;4179399;28;20158;-75
2021/09/13 06:52:48;;;;;;;9.13;6.07;;;15.30;99.90;;;14.67;100.00;101001.81;4175403;28;20508;-75
2021/09/13 06:54:50;;;;;;;7.63;5.37;;;15.40;99.90;;;14.86;100.00;101019.97;4168917;28;20025;-76
2021/09/13 06:56:51;;;;;;;11.63;7.53;;;15.50;99.90;;;14.87;100.00;101003.81;4166053;28;20063;-76
2021/09/13 06:58:52;;;;;;;15.00;11.50;;;15.60;99.90;;;15.15;100.00;101030.69;4171560;28;20060;-76
2021/09/13 07:00:55;;;;;;;11.70;9.20;;;15.70;99.90;;;15.15;100.00;101022.72;4160065;28;20021;-76
2021/09/13 07:02:56;;;;;;;13.63;9.85;;;15.80;99.90;;;15.32;99.67;101036.72;4174279;28;20075;-76
2021/09/13 07:04:58;;;;;;;15.05;11.68;;;15.90;99.90;;;15.19;99.57;101009.91;4168660;28;20029;-76
2021/09/13 07:06:59;;;;;;;19.15;13.00;;;16.00;99.90;;;15.47;98.45;101033.09;4168733;28;20420;-76
2021/09/13 07:09:00;;;;;;;15.20;12.50;;;16.10;99.90;;;15.35;98.43;101004.47;4168674;28;20096;-76
2021/09/13 07:11:02;;;;;;;15.80;11.85;;;16.10;99.90;;;15.49;96.70;101001.84;4178689;28;20121;-76
2021/09/13 07:13:03;;;;;;;11.23;9.38;;;16.20;99.90;;;15.63;96.35;101010.84;4171572;28;20026;-76
2021/09/13 07:15:05;;;;;;;11.25;7.22;;;16.20;99.90;;;15.67;94.83;101014.78;4169728;28;20064;-76
2021/09/13 07:17:07;;;;;;;9.02;7.57;;;16.30;99.90;;;15.63;95.13;101005.50;4169346;28;20029;-76
2021/09/13 07:19:08;;;;;;;11.50;6.28;;;16.30;99.90;;;15.61;95.25;101002.22;4178350;28;20068;-76
2021/09/13 07:21:09;;;;;;;7.25;5.90;;;16.30;99.90;;;15.55;94.97;100996.81;4172877;28;20053;-75
2021/09/13 07:23:10;;;;;;;8.02;5.57;;;16.30;99.90;;;15.58;95.00;100997.28;4169326;28;20028;-75
2021/09/13 07:25:12;;;;;;;8.68;5.40;;;16.30;99.90;;;15.82;93.84;101034.25;4168639;28;20018;-75
2021/09/13 07:27:14;;;;;;;12.32;6.28;;;16.30;99.90;;;15.77;94.50;101017.19;4168292;28;20419;-76
2021/09/13 07:29:15;;;;;;;9.00;5.30;;;16.40;99.90;;;16.01;94.00;101025.69;4181098;28;20505;-75
2021/09/13 07:31:16;;;;;;;6.63;4.60;;;16.40;99.90;;;16.01;94.38;101035.50;4168480;28;20082;-75
2021/09/13 07:33:17;;;;;;;9.93;5.00;;;16.50;99.90;;;16.01;93.41;101006.25;4167772;28;20155;-75
2021/09/13 07:35:18;;;;;;;6.20;4.53;;;16.60;99.90;;;16.04;94.29;101005.88;4177397;28;20104;-75
2021/09/13 07:37:19;;;;;;;6.95;5.10;;;16.60;99.90;;;16.07;93.75;101010.03;4173290;28;20025;-75
2021/09/13 07:39:20;;;;;;;7.38;4.80;;;16.70;99.90;;;15.96;93.91;100980.19;4167401;28;20036;-75
2021/09/13 07:41:21;;;;;;;7.25;4.40;;;16.70;99.90;;;15.99;93.15;100979.84;4174739;28;20028;-75
2021/09/13 07:43:22;;;;;;;6.53;3.83;;;16.70;99.90;;;15.99;94.15;100982.50;4167814;28;20527;-76
2021/09/13 07:45:24;;;;;;;6.72;4.95;;;16.80;99.90;;;15.97;92.83;100995.16;4171903;28;20072;-76
2021/09/13 07:47:25;;;;;;;5.53;4.63;;;16.80;99.90;;;15.98;94.04;101002.13;4167849;28;20033;-76
2021/09/13 07:49:26;;;;;;;6.60;5.18;;;16.70;99.90;;;15.92;94.10;100986.06;4179667;28;20029;-75
2021/09/13 07:51:28;;;;;;;7.28;4.95;;;16.70;99.90;;;15.94;94.12;101002.69;4174551;28;20033;-75
2021/09/13 07:53:29;;;;;;;6.03;4.80;;;16.70;99.90;;;16.01;94.06;101023.03;4167106;28;20425;-75
2021/09/13 07:55:30;;;;;;;4.82;4.10;;;16.60;99.90;;;15.95;94.73;101009.63;4154147;28;20037;-75
2021/09/13 07:57:31;;;;;;;6.97;5.05;;;16.70;99.90;;;16.02;95.58;100997.25;4173357;28;20033;-76
2021/09/13 07:59:32;;;;;;;8.25;4.25;;;16.70;99.90;;;15.96;95.54;100992.69;4165953;28;20600;-76
2021/09/13 08:01:33;;;;;;;6.93;4.00;;;16.70;99.90;;;16.14;96.39;101038.38;4170825;28;20017;-76
2021/09/13 08:03:34;;;;;;;6.05;5.03;;;16.80;99.90;;;15.89;93.67;100999.72;4168604;28;20124;-75
2021/09/13 08:05:35;;;;;;;6.32;4.63;;;16.80;99.90;;;15.85;94.15;100991.31;4167532;28;20627;-76
2021/09/13 08:07:37;;;;;;;9.85;5.65;;;16.80;99.90;;;16.13;92.79;101003.97;4167581;28;20029;-76
2021/09/13 08:09:38;;;;;;;9.95;6.10;;;16.90;99.90;;;16.24;92.70;101027.44;4163757;28;20025;-76
2021/09/13 08:11:40;;;;;;;8.18;5.80;;;17.00;99.90;;;16.29;92.69;101023.19;4169126;28;20053;-76
2021/09/13 08:13:42;;;;;;;6.32;4.88;;;17.10;99.90;;;16.36;92.11;101026.78;4157355;28;20116;-76
2021/09/13 08:15:43;;;;;;;6.72;4.82;;;17.10;99.90;;;16.43;92.52;101033.00;4177095;28;20033;-76
2021/09/13 08:17:44;;;;;;;8.23;4.93;;;17.20;99.90;;;16.49;93.05;101026.09;4154199;28;20424;-76
2021/09/13 08:19:45;;;;;;;5.60;4.65;;;17.30;99.90;;;16.58;92.74;101014.34;4167666;28;20124;-76
2021/09/13 08:21:46;;;;;;;8.90;4.75;;;17.40;99.90;;;16.77;92.52;101023.56;4174610;28;20443;-76
2021/09/13 08:23:48;;;;;;;7.30;5.18;;;17.50;99.90;;;16.75;92.03;101006.97;4167412;28;20029;-76
2021/09/13 08:25:49;;;;;;;9.07;5.57;;;17.60;99.90;;;16.74;91.59;101021.28;4167238;28;20084;-76
2021/09/13 08:27:50;;;;;;;7.55;5.85;;;17.70;99.90;;;16.87;91.51;101024.09;4182785;28;20032;-76